createdAt,value
2023-05-01T00:00:44.777Z,3.80
2023-05-01T00:01:44.943Z,2.80
2023-05-01T00:02:45.146Z,3.20
2023-05-01T00:03:45.005Z,2.90
2023-05-01T00:04:44.863Z,3.10
2023-05-01T00:05:45.111Z,3.20
2023-05-01T00:06:44.907Z,3.10
2023-05-01T00:07:44.739Z,3.30
2023-05-01T00:08:44.741Z,2.90
2023-05-01T00:09:44.793Z,3.20
2023-05-01T00:10:44.956Z,3.10
2023-05-01T00:11:45.037Z,3.40
2023-05-01T00:12:44.933Z,3.10
2023-05-01T00:13:44.734Z,2.90
2023-05-01T00:14:44.653Z,3.30
2023-05-01T00:15:44.853Z,3.40
2023-05-01T00:16:44.754Z,3.40
2023-05-01T00:17:44.756Z,3.10
2023-05-01T00:18:44.703Z,2.90
2023-05-01T00:19:44.635Z,3.10
2023-05-01T00:20:44.655Z,2.90
2023-05-01T00:21:44.613Z,3.00
2023-05-01T00:22:44.653Z,3.00
2023-05-01T00:23:44.635Z,3.10
2023-05-01T00:24:44.575Z,3.20
2023-05-01T00:25:44.569Z,3.10
2023-05-01T00:26:44.569Z,3.20
2023-05-01T00:27:44.617Z,3.50
2023-05-01T00:28:44.551Z,3.40
2023-05-01T00:29:44.888Z,3.30
2023-05-01T00:30:44.597Z,3.00
2023-05-01T00:31:44.641Z,3.20
2023-05-01T00:32:44.552Z,3.30
2023-05-01T00:33:44.576Z,3.20
2023-05-01T00:34:44.578Z,3.00
2023-05-01T00:35:44.576Z,3.30
2023-05-01T00:36:44.519Z,3.20
2023-05-01T00:37:44.474Z,3.50
2023-05-01T00:38:44.456Z,3.20
2023-05-01T00:39:44.459Z,3.10
2023-05-01T00:40:44.446Z,3.10
2023-05-01T00:41:44.482Z,3.10
2023-05-01T00:42:44.449Z,3.40
2023-05-01T00:43:44.446Z,3.00
2023-05-01T00:44:44.451Z,2.90
2023-05-01T00:45:44.474Z,2.90
2023-05-01T00:46:44.444Z,3.30
2023-05-01T00:47:44.475Z,3.30
2023-05-01T00:48:44.393Z,3.30
2023-05-01T00:49:44.368Z,3.00
2023-05-01T00:51:27.528Z,3.40
2023-05-01T00:51:45.382Z,3.40
2023-05-01T00:52:44.397Z,3.20
2023-05-01T00:53:44.404Z,3.40
2023-05-01T00:54:44.368Z,3.30
2023-05-01T00:55:44.356Z,2.90
2023-05-01T00:56:44.345Z,3.30
2023-05-01T00:57:44.309Z,2.80
2023-05-01T00:58:44.304Z,7.90
2023-05-01T00:59:44.349Z,3.00
2023-05-01T01:00:44.330Z,3.20
2023-05-01T01:01:44.375Z,3.50
2023-05-01T01:02:44.317Z,3.00
2023-05-01T01:03:44.268Z,2.70
2023-05-01T01:04:44.435Z,2.90
2023-05-01T01:05:44.335Z,3.10
2023-05-01T01:06:44.310Z,3.10
2023-05-01T01:07:44.267Z,3.00
2023-05-01T01:08:44.265Z,3.00
2023-05-01T01:09:44.253Z,3.10
2023-05-01T01:10:44.249Z,3.10
2023-05-01T01:11:44.265Z,3.20
2023-05-01T01:12:44.227Z,3.00
2023-05-01T01:13:44.222Z,3.00
2023-05-01T01:14:44.207Z,3.30
2023-05-01T01:15:44.203Z,3.40
2023-05-01T01:16:44.267Z,3.10
2023-05-01T01:17:44.265Z,3.00
2023-05-01T01:18:44.188Z,3.20
2023-05-01T01:19:44.166Z,3.80
2023-05-01T01:20:44.170Z,3.20
2023-05-01T01:21:44.171Z,3.20
2023-05-01T01:22:44.147Z,3.20
2023-05-01T01:23:44.186Z,3.50
2023-05-01T01:24:44.144Z,3.20
2023-05-01T01:25:44.124Z,3.10
2023-05-01T01:26:44.127Z,3.20
2023-05-01T01:27:44.132Z,4.00
2023-05-01T01:28:44.107Z,3.20
2023-05-01T01:29:44.166Z,3.40
2023-05-01T01:30:44.146Z,3.10
2023-05-01T01:31:44.325Z,3.00
2023-05-01T01:32:44.114Z,3.20
2023-05-01T01:33:44.086Z,3.10
2023-05-01T01:34:44.071Z,3.30
2023-05-01T01:35:44.585Z,3.20
2023-05-01T01:36:44.068Z,3.40
2023-05-01T01:37:44.049Z,2.90
2023-05-01T01:38:44.066Z,3.10
2023-05-01T01:39:44.026Z,3.30
2023-05-01T01:40:44.031Z,3.00
2023-05-01T01:41:44.068Z,3.10
2023-05-01T01:42:44.008Z,3.00
2023-05-01T01:43:44.013Z,3.10
2023-05-01T01:44:44.010Z,2.70
2023-05-01T01:45:43.985Z,3.20
2023-05-01T01:46:44.035Z,3.20
2023-05-01T01:47:44.054Z,3.20
2023-05-01T01:48:43.965Z,3.10
2023-05-01T01:49:43.947Z,2.80
2023-05-01T01:50:43.953Z,3.00
2023-05-01T01:51:43.949Z,2.60
2023-05-01T01:52:43.957Z,2.90
2023-05-01T01:53:43.970Z,3.00
2023-05-01T01:54:43.920Z,3.00
2023-05-01T01:55:43.913Z,2.80
2023-05-01T01:56:43.943Z,3.00
2023-05-01T01:57:43.953Z,3.00
2023-05-01T01:58:43.884Z,3.00
2023-05-01T01:59:43.969Z,3.00
2023-05-01T02:00:43.890Z,3.10
2023-05-01T02:01:43.942Z,2.90
2023-05-01T02:02:43.941Z,3.00
2023-05-01T02:03:44.081Z,3.10
2023-05-01T02:04:43.850Z,3.00
2023-05-01T02:05:43.876Z,3.10
2023-05-01T02:06:43.960Z,2.90
2023-05-01T02:07:43.833Z,2.70
2023-05-01T02:08:43.827Z,3.20
2023-05-01T02:09:43.785Z,3.90
2023-05-01T02:10:43.785Z,3.00
2023-05-01T02:11:43.845Z,3.40
2023-05-01T02:12:43.791Z,3.50
2023-05-01T02:13:43.788Z,3.50
2023-05-01T02:14:43.775Z,3.70
2023-05-01T02:15:43.824Z,3.30
2023-05-01T02:16:43.792Z,3.20
2023-05-01T02:17:43.846Z,3.40
2023-05-01T02:18:43.749Z,3.40
2023-05-01T02:19:43.751Z,3.30
2023-05-01T02:20:43.710Z,3.50
2023-05-01T02:21:43.732Z,3.40
2023-05-01T02:22:43.718Z,3.30
2023-05-01T02:23:43.762Z,3.50
2023-05-01T02:24:43.737Z,3.00
2023-05-01T02:25:43.684Z,3.50
2023-05-01T02:26:43.697Z,3.10
2023-05-01T02:27:43.693Z,3.00
2023-05-01T02:28:43.672Z,3.50
2023-05-01T02:29:43.713Z,3.50
2023-05-01T02:30:43.673Z,3.60
2023-05-01T02:31:43.718Z,4.00
2023-05-01T02:32:43.704Z,3.50
2023-05-01T02:33:43.650Z,3.40
2023-05-01T02:34:43.632Z,3.20
2023-05-01T02:35:43.688Z,3.20
2023-05-01T02:36:43.640Z,3.40
2023-05-01T02:37:43.616Z,3.00
2023-05-01T02:38:43.688Z,3.20
2023-05-01T02:39:43.566Z,3.20
2023-05-01T02:40:43.576Z,3.00
2023-05-01T02:41:44.083Z,3.30
2023-05-01T02:42:43.579Z,3.10
2023-05-01T02:43:43.577Z,3.50
2023-05-01T02:44:43.547Z,3.90
2023-05-01T02:45:43.548Z,3.10
2023-05-01T02:46:43.563Z,3.40
2023-05-01T02:47:43.600Z,3.30
2023-05-01T02:48:43.512Z,3.50
2023-05-01T02:49:43.519Z,3.40
2023-05-01T02:50:43.494Z,3.40
2023-05-01T02:51:43.488Z,3.30
2023-05-01T02:52:43.496Z,3.60
2023-05-01T02:53:43.503Z,3.50
2023-05-01T02:54:43.483Z,3.10
2023-05-01T02:55:43.459Z,3.50
2023-05-01T02:56:43.478Z,3.20
2023-05-01T02:57:43.458Z,3.30
2023-05-01T02:58:43.461Z,3.30
2023-05-01T02:59:43.470Z,3.30
2023-05-01T03:00:43.456Z,3.50
2023-05-01T03:01:43.475Z,3.30
2023-05-01T03:02:43.425Z,3.10
2023-05-01T03:03:43.467Z,3.20
2023-05-01T03:04:43.487Z,3.40
2023-05-01T03:05:43.420Z,3.30
2023-05-01T03:06:43.435Z,3.40
2023-05-01T03:07:43.396Z,3.20
2023-05-01T03:08:43.378Z,3.40
2023-05-01T03:09:43.392Z,2.90
2023-05-01T03:10:43.392Z,3.50
2023-05-01T03:11:43.402Z,3.00
2023-05-01T03:12:43.338Z,3.30
2023-05-01T03:13:43.327Z,3.40
2023-05-01T03:14:43.321Z,3.20
2023-05-01T03:15:43.304Z,3.30
2023-05-01T03:16:43.367Z,3.20
2023-05-01T03:17:43.388Z,3.20
2023-05-01T03:18:43.309Z,3.70
2023-05-01T03:19:43.297Z,3.10
2023-05-01T03:20:43.267Z,3.10
2023-05-01T03:21:43.267Z,3.10
2023-05-01T03:22:43.277Z,3.20
2023-05-01T03:23:43.300Z,3.30
2023-05-01T03:24:43.244Z,3.40
2023-05-01T03:25:43.241Z,3.40
2023-05-01T03:26:43.252Z,3.50
2023-05-01T03:27:43.215Z,3.20
2023-05-01T03:28:43.280Z,2.80
2023-05-01T03:29:43.263Z,2.90
2023-05-01T03:30:43.197Z,2.90
2023-05-01T03:31:43.249Z,3.20
2023-05-01T03:32:43.241Z,2.90
2023-05-01T03:33:43.213Z,2.90
2023-05-01T03:34:43.192Z,3.00
2023-05-01T03:35:43.274Z,3.30
2023-05-01T03:36:43.179Z,3.30
2023-05-01T03:37:43.143Z,2.90
2023-05-01T03:38:43.161Z,3.10
2023-05-01T03:39:43.157Z,3.10
2023-05-01T03:40:43.150Z,3.10
2023-05-01T03:41:43.623Z,2.70
2023-05-01T03:42:43.145Z,3.20
2023-05-01T03:43:43.108Z,2.90
2023-05-01T03:44:43.107Z,3.00
2023-05-01T03:45:44.906Z,2.90
2023-05-01T03:46:43.182Z,3.00
2023-05-01T03:47:43.167Z,3.00
2023-05-01T03:48:43.088Z,3.20
2023-05-01T03:49:43.082Z,3.10
2023-05-01T03:50:43.088Z,3.50
2023-05-01T03:51:43.092Z,3.40
2023-05-01T03:52:43.083Z,3.20
2023-05-01T03:53:43.062Z,3.10
2023-05-01T03:54:43.047Z,3.10
2023-05-01T03:55:43.024Z,3.00
2023-05-01T03:56:43.016Z,3.40
2023-05-01T03:57:43.061Z,3.40
2023-05-01T03:58:43.033Z,3.10
2023-05-01T03:59:43.029Z,2.90
2023-05-01T04:00:43.003Z,3.20
2023-05-01T04:01:43.058Z,3.20
2023-05-01T04:02:43.265Z,3.40
2023-05-01T04:03:43.094Z,3.10
2023-05-01T04:04:42.946Z,3.50
2023-05-01T04:05:43.027Z,3.50
2023-05-01T04:06:42.978Z,3.30
2023-05-01T04:07:43.020Z,3.10
2023-05-01T04:08:42.923Z,3.20
2023-05-01T04:09:42.958Z,3.10
2023-05-01T04:10:42.928Z,3.30
2023-05-01T04:11:42.980Z,2.80
2023-05-01T04:12:42.917Z,3.40
2023-05-01T04:13:42.941Z,3.10
2023-05-01T04:14:42.901Z,3.00
2023-05-01T04:15:42.889Z,3.10
2023-05-01T04:16:42.891Z,3.00
2023-05-01T04:17:42.927Z,3.10
2023-05-01T04:18:42.856Z,3.00
2023-05-01T04:19:42.851Z,3.00
2023-05-01T04:20:42.844Z,3.40
2023-05-01T04:21:42.823Z,3.00
2023-05-01T04:22:42.832Z,2.90
2023-05-01T04:23:42.870Z,3.20
2023-05-01T04:24:42.808Z,3.10
2023-05-01T04:25:42.813Z,3.50
2023-05-01T04:26:42.803Z,3.40
2023-05-01T04:27:42.786Z,3.20
2023-05-01T04:28:42.808Z,3.70
2023-05-01T04:29:42.827Z,3.10
2023-05-01T04:30:42.774Z,3.40
2023-05-01T04:31:42.776Z,3.70
2023-05-01T04:32:42.794Z,3.10
2023-05-01T04:33:42.756Z,3.30
2023-05-01T04:34:42.752Z,3.10
2023-05-01T04:35:42.790Z,2.90
2023-05-01T04:36:42.736Z,3.20
2023-05-01T04:37:42.733Z,3.20
2023-05-01T04:38:42.708Z,3.10
2023-05-01T04:39:42.711Z,3.10
2023-05-01T04:40:42.706Z,3.70
2023-05-01T04:41:42.720Z,3.10
2023-05-01T04:42:42.689Z,3.00
2023-05-01T04:43:42.654Z,3.20
2023-05-01T04:44:42.677Z,3.00
2023-05-01T04:45:42.661Z,3.30
2023-05-01T04:46:42.706Z,3.50
2023-05-01T04:47:42.926Z,3.10
2023-05-01T04:48:42.630Z,3.50
2023-05-01T04:49:42.660Z,3.00
2023-05-01T04:50:42.665Z,3.00
2023-05-01T04:51:42.591Z,3.30
2023-05-01T04:52:42.593Z,3.40
2023-05-01T04:53:42.650Z,3.30
2023-05-01T04:54:42.592Z,3.10
2023-05-01T04:55:42.569Z,3.40
2023-05-01T04:56:43.144Z,3.30
2023-05-01T04:57:42.553Z,3.10
2023-05-01T04:58:42.542Z,3.20
2023-05-01T04:59:42.576Z,3.00
2023-05-01T05:00:42.555Z,3.10
2023-05-01T05:01:42.584Z,3.10
2023-05-01T05:02:42.596Z,3.20
2023-05-01T05:03:42.725Z,3.50
2023-05-01T05:04:42.504Z,3.00
2023-05-01T05:05:42.525Z,3.20
2023-05-01T05:06:42.549Z,2.70
2023-05-01T05:07:42.469Z,3.00
2023-05-01T05:08:42.474Z,3.20
2023-05-01T05:09:42.451Z,3.10
2023-05-01T05:10:42.457Z,2.90
2023-05-01T05:11:42.518Z,3.20
2023-05-01T05:12:42.450Z,3.00
2023-05-01T05:13:42.455Z,2.90
2023-05-01T05:14:42.456Z,2.90
2023-05-01T05:15:42.442Z,3.00
2023-05-01T05:16:42.442Z,2.90
2023-05-01T05:17:42.492Z,2.70
2023-05-01T05:18:42.402Z,3.10
2023-05-01T05:19:42.411Z,3.10
2023-05-01T05:20:42.391Z,3.00
2023-05-01T05:21:42.396Z,2.90
2023-05-01T05:22:42.381Z,2.90
2023-05-01T05:23:42.432Z,2.70
2023-05-01T05:24:42.365Z,2.60
2023-05-01T05:25:42.367Z,2.90
2023-05-01T05:26:42.351Z,2.80
2023-05-01T05:27:42.336Z,2.90
2023-05-01T05:28:42.343Z,2.90
2023-05-01T05:29:42.371Z,2.80
2023-05-01T05:30:42.326Z,3.00
2023-05-01T05:31:42.378Z,3.00
2023-05-01T05:32:42.403Z,3.00
2023-05-01T05:33:42.306Z,2.80
2023-05-01T05:34:42.324Z,2.80
2023-05-01T05:35:42.346Z,3.30
2023-05-01T05:36:42.295Z,2.50
2023-05-01T05:37:43.916Z,2.70
2023-05-01T05:38:42.256Z,2.80
2023-05-01T05:39:42.262Z,2.80
2023-05-01T05:40:42.277Z,3.00
2023-05-01T05:41:42.312Z,2.70
2023-05-01T05:42:42.226Z,3.00
2023-05-01T05:43:42.246Z,3.00
2023-05-01T05:44:42.223Z,2.80
2023-05-01T05:45:42.294Z,2.70
2023-05-01T05:46:42.256Z,2.90
2023-05-01T05:47:42.717Z,2.80
2023-05-01T05:48:42.191Z,2.60
2023-05-01T05:49:42.193Z,2.90
2023-05-01T05:50:42.177Z,2.80
2023-05-01T05:51:42.183Z,2.90
2023-05-01T05:52:42.184Z,2.90
2023-05-01T05:53:42.213Z,2.90
2023-05-01T05:54:42.155Z,2.50
2023-05-01T05:55:42.138Z,2.60
2023-05-01T05:56:42.140Z,2.70
2023-05-01T05:57:42.162Z,2.70
2023-05-01T05:58:42.169Z,3.10
2023-05-01T05:59:42.201Z,2.80
2023-05-01T06:00:42.133Z,2.80
2023-05-01T06:01:42.082Z,2.90
2023-05-01T06:02:42.173Z,2.90
2023-05-01T06:03:42.260Z,2.70
2023-05-01T06:04:42.094Z,2.90
2023-05-01T06:05:42.129Z,2.80
2023-05-01T06:06:42.115Z,2.70
2023-05-01T06:07:42.073Z,2.90
2023-05-01T06:08:42.046Z,2.90
2023-05-01T06:09:42.076Z,2.70
2023-05-01T06:10:42.044Z,3.00
2023-05-01T06:11:42.066Z,3.00
2023-05-01T06:12:44.546Z,2.80
2023-05-01T06:13:43.000Z,2.80
2023-05-01T06:14:42.023Z,2.80
2023-05-01T06:15:42.075Z,2.80
2023-05-01T06:16:41.977Z,2.70
2023-05-01T06:17:42.081Z,2.60
2023-05-01T06:18:43.338Z,2.80
2023-05-01T06:19:41.961Z,2.90
2023-05-01T06:20:41.952Z,2.60
2023-05-01T06:21:41.951Z,2.90
2023-05-01T06:22:41.947Z,3.10
2023-05-01T06:23:41.976Z,2.70
2023-05-01T06:24:41.934Z,3.00
2023-05-01T06:25:41.923Z,2.90
2023-05-01T06:26:41.919Z,2.60
2023-05-01T06:27:41.906Z,2.90
2023-05-01T06:28:41.892Z,3.80
2023-05-01T06:29:41.934Z,2.70
2023-05-01T06:30:41.873Z,2.80
2023-05-01T06:31:41.906Z,2.60
2023-05-01T06:32:41.927Z,2.80
2023-05-01T06:33:41.872Z,3.10
2023-05-01T06:34:41.832Z,3.20
2023-05-01T06:35:41.899Z,2.80
2023-05-01T06:36:41.837Z,2.60
2023-05-01T06:37:41.814Z,2.80
2023-05-01T06:38:41.831Z,2.80
2023-05-01T06:39:41.839Z,2.50
2023-05-01T06:40:41.809Z,2.30
2023-05-01T06:41:41.845Z,2.40
2023-05-01T06:42:41.777Z,2.40
2023-05-01T06:43:41.776Z,2.70
2023-05-01T06:44:41.772Z,2.50
2023-05-01T06:45:41.774Z,2.40
2023-05-01T06:46:41.780Z,2.50
2023-05-01T06:47:41.806Z,2.50
2023-05-01T06:48:41.745Z,2.60
2023-05-01T06:49:41.735Z,2.60
2023-05-01T06:50:41.759Z,2.60
2023-05-01T06:51:41.726Z,2.60
2023-05-01T06:52:41.730Z,2.70
2023-05-01T06:53:41.770Z,2.60
2023-05-01T06:54:41.702Z,2.40
2023-05-01T06:55:41.682Z,2.50
2023-05-01T06:56:41.693Z,2.50
2023-05-01T06:57:41.674Z,2.60
2023-05-01T06:58:41.681Z,2.70
2023-05-01T06:59:41.699Z,2.60
2023-05-01T07:00:41.744Z,2.40
2023-05-01T07:01:41.707Z,2.40
2023-05-01T07:02:41.825Z,2.40
2023-05-01T07:03:41.738Z,2.40
2023-05-01T07:04:41.624Z,2.80
2023-05-01T07:05:41.672Z,3.10
2023-05-01T07:06:41.656Z,2.80
2023-05-01T07:07:47.384Z,2.70
2023-05-01T07:08:42.606Z,2.60
2023-05-01T07:09:41.638Z,2.50
2023-05-01T07:10:42.369Z,2.60
2023-05-01T07:11:41.620Z,2.80
2023-05-01T07:12:41.573Z,2.50
2023-05-01T07:13:41.558Z,2.50
2023-05-01T07:14:41.576Z,2.30
2023-05-01T07:15:41.532Z,2.50
2023-05-01T07:16:41.570Z,2.40
2023-05-01T07:17:41.598Z,2.60
2023-05-01T07:18:41.517Z,2.70
2023-05-01T07:19:41.515Z,2.60
2023-05-01T07:20:41.519Z,2.90
2023-05-01T07:21:41.507Z,2.60
2023-05-01T07:22:43.866Z,2.70
2023-05-01T07:23:41.522Z,2.80
2023-05-01T07:24:41.489Z,2.70
2023-05-01T07:25:41.479Z,2.40
2023-05-01T07:26:41.471Z,2.60
2023-05-01T07:27:41.457Z,2.70
2023-05-01T07:28:41.468Z,2.60
2023-05-01T07:29:41.462Z,3.00
2023-05-01T07:30:41.450Z,2.90
2023-05-01T07:31:41.474Z,2.90
2023-05-01T07:32:41.444Z,3.00
2023-05-01T07:33:41.406Z,3.00
2023-05-01T07:34:41.410Z,2.50
2023-05-01T07:35:41.433Z,2.70
2023-05-01T07:36:41.405Z,2.90
2023-05-01T07:37:41.405Z,2.90
2023-05-01T07:38:41.380Z,3.00
2023-05-01T07:39:41.355Z,2.90
2023-05-01T07:40:41.388Z,3.10
2023-05-01T07:41:41.411Z,2.70
2023-05-01T07:42:41.356Z,2.70
2023-05-01T07:43:41.317Z,2.70
2023-05-01T07:44:41.334Z,2.80
2023-05-01T07:45:41.369Z,3.00
2023-05-01T07:46:41.309Z,3.10
2023-05-01T07:47:41.366Z,2.70
2023-05-01T07:48:41.330Z,2.90
2023-05-01T07:49:41.323Z,3.00
2023-05-01T07:50:41.297Z,3.10
2023-05-01T07:51:41.268Z,2.80
2023-05-01T07:52:41.291Z,5.60
2023-05-01T07:53:41.360Z,2.70
2023-05-01T07:54:41.247Z,3.00
2023-05-01T07:55:41.240Z,3.00
2023-05-01T07:56:41.256Z,2.90
2023-05-01T07:57:41.258Z,3.50
2023-05-01T07:58:41.222Z,3.10
2023-05-01T07:59:41.251Z,3.00
2023-05-01T08:00:41.231Z,3.10
2023-05-01T08:01:41.197Z,2.90
2023-05-01T08:02:41.442Z,2.90
2023-05-01T08:03:41.297Z,2.90
2023-05-01T08:04:41.248Z,3.20
2023-05-01T08:05:41.235Z,3.20
2023-05-01T08:06:41.251Z,3.30
2023-05-01T08:07:41.164Z,2.90
2023-05-01T08:08:41.143Z,2.90
2023-05-01T08:09:41.137Z,3.10
2023-05-01T08:10:41.130Z,3.30
2023-05-01T08:11:41.172Z,3.30
2023-05-01T08:12:41.141Z,3.60
2023-05-01T08:13:41.112Z,3.10
2023-05-01T08:14:41.103Z,3.30
2023-05-01T08:15:41.108Z,3.30
2023-05-01T08:16:41.190Z,3.50
2023-05-01T08:17:41.144Z,3.30
2023-05-01T08:18:41.071Z,3.30
2023-05-01T08:19:41.096Z,3.50
2023-05-01T08:20:41.076Z,3.50
2023-05-01T08:21:41.051Z,3.40
2023-05-01T08:22:41.073Z,3.30
2023-05-01T08:23:41.104Z,3.80
2023-05-01T08:24:41.046Z,4.10
2023-05-01T08:25:41.024Z,3.80
2023-05-01T08:26:41.020Z,4.00
2023-05-01T08:27:41.012Z,3.70
2023-05-01T08:28:41.023Z,3.50
2023-05-01T08:29:41.036Z,3.70
2023-05-01T08:30:41.003Z,3.90
2023-05-01T08:31:41.022Z,3.80
2023-05-01T08:32:41.001Z,4.20
2023-05-01T08:33:40.952Z,3.60
2023-05-01T08:34:40.971Z,3.50
2023-05-01T08:35:41.022Z,3.90
2023-05-01T08:36:40.956Z,3.70
2023-05-01T08:37:40.935Z,3.60
2023-05-01T08:38:40.942Z,4.00
2023-05-01T08:39:40.935Z,3.70
2023-05-01T08:40:40.931Z,3.50
2023-05-01T08:41:40.952Z,3.80
2023-05-01T08:42:40.911Z,3.60
2023-05-01T08:43:40.901Z,3.40
2023-05-01T08:44:40.888Z,3.60
2023-05-01T08:45:40.884Z,3.70
2023-05-01T08:46:40.915Z,3.80
2023-05-01T08:47:40.938Z,3.60
2023-05-01T08:48:40.850Z,4.00
2023-05-01T08:49:40.856Z,4.20
2023-05-01T08:50:40.830Z,3.60
2023-05-01T08:51:40.829Z,3.80
2023-05-01T08:52:40.825Z,3.40
2023-05-01T08:53:40.846Z,3.70
2023-05-01T08:54:40.806Z,3.40
2023-05-01T08:55:40.814Z,3.70
2023-05-01T08:56:40.785Z,3.90
2023-05-01T08:57:40.794Z,3.20
2023-05-01T08:58:40.783Z,3.60
2023-05-01T08:59:41.006Z,3.50
2023-05-01T09:00:40.789Z,3.60
2023-05-01T09:01:40.808Z,3.70
2023-05-01T09:02:40.789Z,3.80
2023-05-01T09:03:40.776Z,3.40
2023-05-01T09:04:40.727Z,3.80
2023-05-01T09:05:40.804Z,3.70
2023-05-01T09:06:40.758Z,3.70
2023-05-01T09:07:40.713Z,4.00
2023-05-01T09:08:40.706Z,3.10
2023-05-01T09:09:40.691Z,3.30
2023-05-01T09:10:40.689Z,3.40
2023-05-01T09:11:40.729Z,3.60
2023-05-01T09:12:40.660Z,3.50
2023-05-01T09:13:40.710Z,3.30
2023-05-01T09:14:40.649Z,3.40
2023-05-01T09:15:40.675Z,3.50
2023-05-01T09:16:40.687Z,3.30
2023-05-01T09:17:40.749Z,3.40
2023-05-01T09:18:40.616Z,3.50
2023-05-01T09:19:40.640Z,3.40
2023-05-01T09:20:40.614Z,3.40
2023-05-01T09:21:40.604Z,3.20
2023-05-01T09:22:40.614Z,3.30
2023-05-01T09:23:40.616Z,3.10
2023-05-01T09:24:40.586Z,3.50
2023-05-01T09:25:40.573Z,3.60
2023-05-01T09:26:40.573Z,3.40
2023-05-01T09:27:40.569Z,3.50
2023-05-01T09:28:40.556Z,3.50
2023-05-01T09:29:40.587Z,3.00
2023-05-01T09:30:40.535Z,3.40
2023-05-01T09:31:40.575Z,3.90
2023-05-01T09:32:42.548Z,3.60
2023-05-01T09:33:40.534Z,5.70
2023-05-01T09:34:40.526Z,3.40
2023-05-01T09:35:40.539Z,3.40
2023-05-01T09:36:40.479Z,3.80
2023-05-01T09:37:40.491Z,3.60
2023-05-01T09:38:40.468Z,3.40
2023-05-01T09:39:40.479Z,4.00
2023-05-01T09:40:40.449Z,3.60
2023-05-01T09:41:40.474Z,3.30
2023-05-01T09:42:40.435Z,3.70
2023-05-01T09:43:40.421Z,3.50
2023-05-01T09:44:40.443Z,3.40
2023-05-01T09:45:40.460Z,3.50
2023-05-01T09:46:40.514Z,3.40
2023-05-01T09:47:40.471Z,3.30
2023-05-01T09:48:40.446Z,3.60
2023-05-01T09:49:40.389Z,3.20
2023-05-01T09:50:40.379Z,3.10
2023-05-01T09:51:40.377Z,3.40
2023-05-01T09:52:40.376Z,3.40
2023-05-01T09:53:40.410Z,3.20
2023-05-01T09:54:40.359Z,3.10
2023-05-01T09:55:40.346Z,3.10
2023-05-01T09:56:40.326Z,3.50
2023-05-01T09:57:40.337Z,3.10
2023-05-01T09:58:40.309Z,3.10
2023-05-01T09:59:40.569Z,3.50
2023-05-01T10:00:40.292Z,3.20
2023-05-01T10:01:40.386Z,3.20
2023-05-01T10:02:40.351Z,3.10
2023-05-01T10:03:40.438Z,3.30
2023-05-01T10:04:40.306Z,3.00
2023-05-01T10:05:40.309Z,3.10
2023-05-01T10:06:40.337Z,3.60
2023-05-01T10:07:40.279Z,3.30
2023-05-01T10:08:40.231Z,3.20
2023-05-01T10:09:40.241Z,2.90
2023-05-01T10:10:40.243Z,2.80
2023-05-01T10:11:40.305Z,3.10
2023-05-01T10:12:40.204Z,3.20
2023-05-01T10:13:40.214Z,3.00
2023-05-01T10:14:40.210Z,3.10
2023-05-01T10:15:40.217Z,2.90
2023-05-01T10:16:40.236Z,2.90
2023-05-01T10:17:40.250Z,2.90
2023-05-01T10:18:40.190Z,2.70
2023-05-01T10:19:40.156Z,2.80
2023-05-01T10:20:40.165Z,3.00
2023-05-01T10:21:40.207Z,3.20
2023-05-01T10:22:40.162Z,3.20
2023-05-01T10:23:40.193Z,3.10
2023-05-01T10:24:40.164Z,3.20
2023-05-01T10:25:40.120Z,2.80
2023-05-01T10:26:40.124Z,3.40
2023-05-01T10:27:40.119Z,2.90
2023-05-01T10:28:40.100Z,2.90
2023-05-01T10:29:40.188Z,2.90
2023-05-01T10:30:40.127Z,3.00
2023-05-01T10:31:42.314Z,3.00
2023-05-01T10:32:40.117Z,2.80
2023-05-01T10:33:40.100Z,2.90
2023-05-01T10:34:40.073Z,2.90
2023-05-01T10:35:40.173Z,3.10
2023-05-01T10:36:40.052Z,3.00
2023-05-01T10:37:40.158Z,3.00
2023-05-01T10:38:40.054Z,2.90
2023-05-01T10:39:40.017Z,3.00
2023-05-01T10:40:40.177Z,2.80
2023-05-01T10:41:40.053Z,2.80
2023-05-01T10:42:39.997Z,3.10
2023-05-01T10:43:39.998Z,3.30
2023-05-01T10:44:40.004Z,2.90
2023-05-01T10:45:39.968Z,2.80
2023-05-01T10:46:40.002Z,2.90
2023-05-01T10:47:40.021Z,3.00
2023-05-01T10:48:39.938Z,3.00
2023-05-01T10:49:39.937Z,3.00
2023-05-01T10:50:39.928Z,3.00
2023-05-01T10:51:39.915Z,2.90
2023-05-01T10:52:39.926Z,3.10
2023-05-01T10:53:39.944Z,2.80
2023-05-01T10:54:39.920Z,3.10
2023-05-01T10:55:39.925Z,2.70
2023-05-01T10:56:39.885Z,3.00
2023-05-01T10:57:39.888Z,3.60
2023-05-01T10:58:39.903Z,3.60
2023-05-01T10:59:39.897Z,3.10
2023-05-01T11:00:39.858Z,3.10
2023-05-01T11:01:39.990Z,2.80
2023-05-01T11:02:39.848Z,2.40
2023-05-01T11:03:39.825Z,2.80
2023-05-01T11:04:39.843Z,2.30
2023-05-01T11:05:40.097Z,3.00
2023-05-01T11:06:39.845Z,2.60
2023-05-01T11:07:39.810Z,2.50
2023-05-01T11:08:39.809Z,2.60
2023-05-01T11:09:39.840Z,2.80
2023-05-01T11:10:39.808Z,2.70
2023-05-01T11:11:39.843Z,2.80
2023-05-01T11:12:39.833Z,2.80
2023-05-01T11:13:39.766Z,2.50
2023-05-01T11:14:39.769Z,2.70
2023-05-01T11:15:39.759Z,2.70
2023-05-01T11:16:39.861Z,2.50
2023-05-01T11:17:40.004Z,2.90
2023-05-01T11:18:39.749Z,2.90
2023-05-01T11:19:40.734Z,2.70
2023-05-01T11:20:39.789Z,2.40
2023-05-01T11:21:39.782Z,2.40
2023-05-01T11:22:39.708Z,2.40
2023-05-01T11:23:39.750Z,2.40
2023-05-01T11:24:39.696Z,3.30
2023-05-01T11:25:39.697Z,3.20
2023-05-01T11:26:39.672Z,3.40
2023-05-01T11:27:39.676Z,2.60
2023-05-01T11:28:39.650Z,2.60
2023-05-01T11:29:41.808Z,2.50
2023-05-01T11:30:39.673Z,2.70
2023-05-01T11:31:39.725Z,2.60
2023-05-01T11:32:39.679Z,2.40
2023-05-01T11:33:39.623Z,2.50
2023-05-01T11:34:39.625Z,2.30
2023-05-01T11:35:39.663Z,2.30
2023-05-01T11:36:39.681Z,2.70
2023-05-01T11:37:39.607Z,2.50
2023-05-01T11:38:39.607Z,2.10
2023-05-01T11:39:39.587Z,2.40
2023-05-01T11:40:39.634Z,1.80
2023-05-01T11:41:39.580Z,2.50
2023-05-01T11:42:39.566Z,1.90
2023-05-01T11:43:39.537Z,2.20
2023-05-01T11:44:39.538Z,2.00
2023-05-01T11:45:39.579Z,2.10
2023-05-01T11:46:39.511Z,2.10
2023-05-01T11:47:39.572Z,2.10
2023-05-01T11:48:39.543Z,2.20
2023-05-01T11:49:39.515Z,1.90
2023-05-01T11:50:39.523Z,1.90
2023-05-01T11:51:39.510Z,2.20
2023-05-01T11:52:39.498Z,4.10
2023-05-01T11:53:39.497Z,3.00
2023-05-01T11:54:39.480Z,2.50
2023-05-01T11:55:39.487Z,2.50
2023-05-01T11:56:39.441Z,2.40
2023-05-01T11:57:39.484Z,2.40
2023-05-01T11:58:39.462Z,2.60
2023-05-01T11:59:39.475Z,3.20
2023-05-01T12:00:39.520Z,2.50
2023-05-01T12:01:39.409Z,2.30
2023-05-01T12:02:39.527Z,2.30
2023-05-01T12:03:39.498Z,2.70
2023-05-01T12:04:39.425Z,2.40
2023-05-01T12:05:39.814Z,2.30
2023-05-01T12:06:39.415Z,2.70
2023-05-01T12:07:39.358Z,2.40
2023-05-01T12:08:39.371Z,2.50
2023-05-01T12:09:39.347Z,2.40
2023-05-01T12:10:39.344Z,2.40
2023-05-01T12:11:39.402Z,2.10
2023-05-01T12:12:39.350Z,2.40
2023-05-01T12:13:39.330Z,2.50
2023-05-01T12:14:39.310Z,2.30
2023-05-01T12:15:39.330Z,2.20
2023-05-01T12:16:39.435Z,2.40
2023-05-01T12:17:39.348Z,2.60
2023-05-01T12:18:39.320Z,2.30
2023-05-01T12:19:39.299Z,2.30
2023-05-01T12:20:39.288Z,2.30
2023-05-01T12:21:39.263Z,2.80
2023-05-01T12:22:39.251Z,2.30
2023-05-01T12:23:39.348Z,1.70
2023-05-01T12:24:39.242Z,1.70
2023-05-01T12:25:39.280Z,1.60
2023-05-01T12:26:39.236Z,1.50
2023-05-01T12:27:39.263Z,1.40
2023-05-01T12:28:39.249Z,1.40
2023-05-01T12:29:39.249Z,1.50
2023-05-01T12:30:39.206Z,1.20
2023-05-01T12:31:39.267Z,1.60
2023-05-01T12:32:39.255Z,1.40
2023-05-01T12:33:39.195Z,1.40
2023-05-01T12:34:39.178Z,1.50
2023-05-01T12:35:39.217Z,1.40
2023-05-01T12:36:39.159Z,1.20
2023-05-01T12:37:39.146Z,1.20
2023-05-01T12:38:39.127Z,1.10
2023-05-01T12:39:39.110Z,1.20
2023-05-01T12:40:39.116Z,1.00
2023-05-01T12:41:39.170Z,1.30
2023-05-01T12:42:39.111Z,1.20
2023-05-01T12:43:39.088Z,1.30
2023-05-01T12:44:39.096Z,1.70
2023-05-01T12:45:39.063Z,1.30
2023-05-01T12:46:39.120Z,1.50
2023-05-01T12:47:39.275Z,1.50
2023-05-01T12:48:39.140Z,1.40
2023-05-01T12:49:39.048Z,1.40
2023-05-01T12:50:39.041Z,1.50
2023-05-01T12:51:39.068Z,1.70
2023-05-01T12:52:39.125Z,1.50
2023-05-01T12:53:39.062Z,1.60
2023-05-01T12:54:39.120Z,1.60
2023-05-01T12:55:38.975Z,1.70
2023-05-01T12:56:39.006Z,1.50
2023-05-01T12:57:38.967Z,1.60
2023-05-01T12:58:38.991Z,2.00
2023-05-01T12:59:39.018Z,1.70
2023-05-01T13:00:38.975Z,1.70
2023-05-01T13:01:39.068Z,1.70
2023-05-01T13:02:39.000Z,1.70
2023-05-01T13:03:40.985Z,2.10
2023-05-01T13:04:38.944Z,1.50
2023-05-01T13:05:39.069Z,1.70
2023-05-01T13:06:38.949Z,1.60
2023-05-01T13:07:38.956Z,1.80
2023-05-01T13:08:38.946Z,3.50
2023-05-01T13:09:38.875Z,1.80
2023-05-01T13:10:38.930Z,7.80
2023-05-01T13:11:39.359Z,1.60
2023-05-01T13:12:38.935Z,1.60
2023-05-01T13:13:38.886Z,1.70
2023-05-01T13:14:38.914Z,2.00
2023-05-01T13:15:38.870Z,1.80
2023-05-01T13:16:38.910Z,1.70
2023-05-01T13:17:38.916Z,1.60
2023-05-01T13:18:38.837Z,1.80